Johannesburg, South Africa
Current Conditions -  °F | °C
As of 12:00 PM on Monday 26 Jan 2015 (Local Time) from FAOR Reporting Station
Scattered Clouds Scattered Clouds  
Wind Chill: 77°   Ceiling: Unl
Heat Index: 79°   Visibility: 6mi
Dew Point: 55°   Wind: 13mph
Humidity: 47%   Direction: 360°N
Pressure: 30.24"   Gusts: NA
Location:  26.19°S, 28.04°E
Report Text: FAOR 261000Z 36011KT 300V020 9999 SCT049 25/13 Q1024 NOSIG
Loading
Personal Weather Stations






























Interactive Weather Map New forecast layout! Learn more

10-Day Weather Forecast

Advertisements
Track Severe Weather on mobile